Massey, Canada
Current Conditions -  °F | °C
As of 2:00 PM on Friday 24 Oct 2014 (Local Time) from CYZE Reporting Station
Overcast Overcast  
Wind Chill: 54°   Ceiling: 2400
Heat Index: 54°   Visibility: 9mi
Dew Point: 46°   Wind: 3mph
Humidity: 77%   Direction: 230°SW
Pressure: 29.95"   Gusts: NA
Location:  46.21°N, 82.08°W
Report Text: CYZE 241800Z AUTO 23003KT 190V270 9SM OVC024 12/08 A2995 RMK SLP149
Loading
Personal Weather Stations






























Interactive Weather Map
Tropical Storm Tracking
New forecast layout! Learn more

10-Day Weather Forecast

Advertisements
Track Severe Weather on mobile